sensor_id;sensor_type;location;lat;lon;timestamp;pressure;altitude;pressure_sealevel;temperature;humidity
31717;BME280;18301;51.076;17.046;2023-11-21T00:01:07;99363.72;;;9.32;100.00
31717;BME280;18301;51.076;17.046;2023-11-21T00:06:10;99366.56;;;9.30;100.00
31717;BME280;18301;51.076;17.046;2023-11-21T00:11:12;99361.25;;;9.08;100.00
31717;BME280;18301;51.076;17.046;2023-11-21T00:16:13;99370.03;;;9.21;100.00
31717;BME280;18301;51.076;17.046;2023-11-21T00:21:15;99366.56;;;9.30;100.00
31717;BME280;18301;51.076;17.046;2023-11-21T00:26:17;99372.97;;;9.18;100.00
31717;BME280;18301;51.076;17.046;2023-11-21T00:31:18;99379.50;;;9.36;100.00
31717;BME280;18301;51.076;17.046;2023-11-21T00:36:20;99389.97;;;9.18;100.00
31717;BME280;18301;51.076;17.046;2023-11-21T00:41:21;99386.81;;;9.13;100.00
31717;BME280;18301;51.076;17.046;2023-11-21T00:46:23;99380.91;;;9.19;100.00
31717;BME280;18301;51.076;17.046;2023-11-21T00:51:25;99384.97;;;9.14;100.00
31717;BME280;18301;51.076;17.046;2023-11-21T00:56:27;99396.22;;;9.19;100.00
31717;BME280;18301;51.076;17.046;2023-11-21T01:01:28;99393.75;;;9.27;100.00
31717;BME280;18301;51.076;17.046;2023-11-21T01:06:31;99383.84;;;9.16;100.00
31717;BME280;18301;51.076;17.046;2023-11-21T01:11:32;99391.09;;;9.16;100.00
31717;BME280;18301;51.076;17.046;2023-11-21T01:16:37;99394.50;;;9.18;100.00
31717;BME280;18301;51.076;17.046;2023-11-21T01:21:38;99395.53;;;9.06;100.00
31717;BME280;18301;51.076;17.046;2023-11-21T01:26:40;99397.13;;;9.29;100.00
31717;BME280;18301;51.076;17.046;2023-11-21T01:31:42;99391.59;;;9.10;100.00
31717;BME280;18301;51.076;17.046;2023-11-21T01:36:45;99397.25;;;9.07;100.00
31717;BME280;18301;51.076;17.046;2023-11-21T01:41:47;99400.94;;;9.06;100.00
31717;BME280;18301;51.076;17.046;2023-11-21T01:46:49;99399.31;;;9.14;100.00
31717;BME280;18301;51.076;17.046;2023-11-21T01:51:50;99404.53;;;9.16;100.00
31717;BME280;18301;51.076;17.046;2023-11-21T01:56:53;99397.47;;;9.15;100.00
31717;BME280;18301;51.076;17.046;2023-11-21T02:01:54;99396.81;;;9.22;100.00
31717;BME280;18301;51.076;17.046;2023-11-21T02:06:57;99397.13;;;9.29;100.00
31717;BME280;18301;51.076;17.046;2023-11-21T02:11:59;99403.28;;;9.20;100.00
31717;BME280;18301;51.076;17.046;2023-11-21T02:17:00;99404.47;;;9.06;100.00
31717;BME280;18301;51.076;17.046;2023-11-21T02:22:02;99404.16;;;8.88;100.00
31717;BME280;18301;51.076;17.046;2023-11-21T02:27:07;99400.59;;;9.20;100.00
31717;BME280;18301;51.076;17.046;2023-11-21T02:32:09;99404.16;;;8.88;100.00
31717;BME280;18301;51.076;17.046;2023-11-21T02:37:12;99408.09;;;9.16;100.00
31717;BME280;18301;51.076;17.046;2023-11-21T02:42:13;99409.00;;;9.06;100.00
31717;BME280;18301;51.076;17.046;2023-11-21T02:47:15;99411.09;;;9.23;100.00
31717;BME280;18301;51.076;17.046;2023-11-21T02:52:16;99412.38;;;9.19;100.00
31717;BME280;18301;51.076;17.046;2023-11-21T02:57:18;99408.75;;;9.30;100.00
31717;BME280;18301;51.076;17.046;2023-11-21T03:02:20;99419.97;;;9.14;100.00
31717;BME280;18301;51.076;17.046;2023-11-21T03:07:21;99417.59;;;8.88;100.00
31717;BME280;18301;51.076;17.046;2023-11-21T03:12:23;99426.34;;;9.02;100.00
31717;BME280;18301;51.076;17.046;2023-11-21T03:17:24;99427.31;;;9.12;100.00
31717;BME280;18301;51.076;17.046;2023-11-21T03:22:26;99417.41;;;9.12;100.00
31717;BME280;18301;51.076;17.046;2023-11-21T03:27:28;99421.75;;;8.92;100.00
31717;BME280;18301;51.076;17.046;2023-11-21T03:32:29;99421.19;;;9.10;100.00
31717;BME280;18301;51.076;17.046;2023-11-21T03:37:33;99433.16;;;9.17;100.00
31717;BME280;18301;51.076;17.046;2023-11-21T03:42:35;99431.94;;;9.21;100.00
31717;BME280;18301;51.076;17.046;2023-11-21T03:47:36;99431.47;;;9.16;100.00
31717;BME280;18301;51.076;17.046;2023-11-21T03:52:38;99434.19;;;9.05;100.00
31717;BME280;18301;51.076;17.046;2023-11-21T03:57:40;99439.19;;;9.09;100.00
31717;BME280;18301;51.076;17.046;2023-11-21T04:02:41;99439.28;;;9.19;100.00
31717;BME280;18301;51.076;17.046;2023-11-21T04:07:43;99437.13;;;9.02;100.00
31717;BME280;18301;51.076;17.046;2023-11-21T04:12:45;99433.00;;;8.97;100.00
31717;BME280;18301;51.076;17.046;2023-11-21T04:17:46;99438.34;;;9.09;100.00
31717;BME280;18301;51.076;17.046;2023-11-21T04:22:48;99439.53;;;9.16;100.00
31717;BME280;18301;51.076;17.046;2023-11-21T04:27:50;99444.50;;;9.32;100.00
31717;BME280;18301;51.076;17.046;2023-11-21T04:32:51;99452.56;;;9.32;100.00
31717;BME280;18301;51.076;17.046;2023-11-21T04:37:53;99458.34;;;9.27;100.00
31717;BME280;18301;51.076;17.046;2023-11-21T04:42:55;99456.69;;;9.04;100.00
31717;BME280;18301;51.076;17.046;2023-11-21T04:47:58;99462.25;;;9.23;100.00
31717;BME280;18301;51.076;17.046;2023-11-21T04:52:59;99464.41;;;9.08;100.00
31717;BME280;18301;51.076;17.046;2023-11-21T04:58:01;99476.19;;;8.96;100.00
31717;BME280;18301;51.076;17.046;2023-11-21T05:03:03;99476.28;;;9.06;100.00
31717;BME280;18301;51.076;17.046;2023-11-21T05:08:06;99476.78;;;8.99;100.00
31717;BME280;18301;51.076;17.046;2023-11-21T05:13:08;99485.06;;;9.08;100.00
31717;BME280;18301;51.076;17.046;2023-11-21T05:18:11;99478.22;;;9.15;100.00
31717;BME280;18301;51.076;17.046;2023-11-21T05:23:15;99496.56;;;9.10;100.00
31717;BME280;18301;51.076;17.046;2023-11-21T05:28:16;99488.03;;;8.93;100.00
31717;BME280;18301;51.076;17.046;2023-11-21T05:33:18;99488.28;;;8.90;100.00
31717;BME280;18301;51.076;17.046;2023-11-21T05:38:21;99494.13;;;9.07;100.00
31717;BME280;18301;51.076;17.046;2023-11-21T05:43:23;99498.66;;;9.06;100.00
31717;BME280;18301;51.076;17.046;2023-11-21T05:48:24;99495.31;;;9.25;100.00
31717;BME280;18301;51.076;17.046;2023-11-21T05:53:27;99505.38;;;9.01;100.00
31717;BME280;18301;51.076;17.046;2023-11-21T05:58:28;99512.97;;;9.07;100.00
31717;BME280;18301;51.076;17.046;2023-11-21T06:03:30;99517.84;;;9.02;100.00
31717;BME280;18301;51.076;17.046;2023-11-21T06:08:31;99515.16;;;9.13;100.00
31717;BME280;18301;51.076;17.046;2023-11-21T06:13:33;99522.78;;;8.85;100.00
31717;BME280;18301;51.076;17.046;2023-11-21T06:18:34;99524.00;;;8.70;100.00
31717;BME280;18301;51.076;17.046;2023-11-21T06:23:36;99535.00;;;8.89;100.00
31717;BME280;18301;51.076;17.046;2023-11-21T06:28:38;99535.25;;;8.86;100.00
31717;BME280;18301;51.076;17.046;2023-11-21T06:33:39;99550.78;;;9.05;100.00
31717;BME280;18301;51.076;17.046;2023-11-21T06:38:41;99545.50;;;9.04;100.00
31717;BME280;18301;51.076;17.046;2023-11-21T06:43:42;99551.13;;;9.12;100.00
31717;BME280;18301;51.076;17.046;2023-11-21T06:48:48;99563.84;;;9.10;100.00
31717;BME280;18301;51.076;17.046;2023-11-21T06:53:50;99556.41;;;9.02;100.00
31717;BME280;18301;51.076;17.046;2023-11-21T06:58:52;99563.84;;;8.98;100.00
31717;BME280;18301;51.076;17.046;2023-11-21T07:03:55;99562.41;;;9.06;100.00
31717;BME280;18301;51.076;17.046;2023-11-21T07:08:57;99574.13;;;9.16;100.00
31717;BME280;18301;51.076;17.046;2023-11-21T07:13:58;99566.19;;;9.14;100.00
31717;BME280;18301;51.076;17.046;2023-11-21T07:19:00;99575.56;;;9.20;100.00
31717;BME280;18301;51.076;17.046;2023-11-21T07:24:05;99569.94;;;9.23;100.00
31717;BME280;18301;51.076;17.046;2023-11-21T07:29:08;99574.97;;;9.16;100.00
31717;BME280;18301;51.076;17.046;2023-11-21T07:34:09;99582.34;;;9.14;100.00
31717;BME280;18301;51.076;17.046;2023-11-21T07:39:13;99580.25;;;9.07;100.00
31717;BME280;18301;51.076;17.046;2023-11-21T07:44:18;99584.03;;;9.15;100.00
31717;BME280;18301;51.076;17.046;2023-11-21T07:49:21;99585.72;;;9.28;100.00
31717;BME280;18301;51.076;17.046;2023-11-21T07:54:24;99587.41;;;9.40;100.00
31717;BME280;18301;51.076;17.046;2023-11-21T07:59:26;99598.59;;;9.02;100.00
31717;BME280;18301;51.076;17.046;2023-11-21T08:04:27;99594.44;;;9.09;100.00
31717;BME280;18301;51.076;17.046;2023-11-21T08:09:32;99597.59;;;9.25;100.00
31717;BME280;18301;51.076;17.046;2023-11-21T08:14:35;99595.16;;;9.33;100.00
31717;BME280;18301;51.076;17.046;2023-11-21T08:19:40;99594.66;;;9.28;100.00
31717;BME280;18301;51.076;17.046;2023-11-21T08:24:42;99602.25;;;9.23;100.00
31717;BME280;18301;51.076;17.046;2023-11-21T08:29:43;99607.59;;;9.45;100.00
31717;BME280;18301;51.076;17.046;2023-11-21T08:34:45;99611.16;;;9.35;100.00
31717;BME280;18301;51.076;17.046;2023-11-21T08:39:49;99618.56;;;9.65;100.00
31717;BME280;18301;51.076;17.046;2023-11-21T08:44:50;99619.06;;;9.59;100.00
31717;BME280;18301;51.076;17.046;2023-11-21T08:49:52;99622.59;;;9.71;100.00
31717;BME280;18301;51.076;17.046;2023-11-21T08:54:54;99615.38;;;9.71;100.00
31717;BME280;18301;51.076;17.046;2023-11-21T08:59:58;99622.34;;;9.74;100.00
31717;BME280;18301;51.076;17.046;2023-11-21T09:05:00;99619.75;;;9.83;100.00
31717;BME280;18301;51.076;17.046;2023-11-21T09:10:05;99621.16;;;9.99;100.00
31717;BME280;18301;51.076;17.046;2023-11-21T09:15:09;99623.84;;;9.99;100.00
31717;BME280;18301;51.076;17.046;2023-11-21T09:20:13;99630.59;;;9.93;100.00
31717;BME280;18301;51.076;17.046;2023-11-21T09:25:16;99638.34;;;9.86;100.00
31717;BME280;18301;51.076;17.046;2023-11-21T09:30:17;99640.06;;;9.87;100.00
31717;BME280;18301;51.076;17.046;2023-11-21T09:35:19;99631.59;;;9.92;100.00
31717;BME280;18301;51.076;17.046;2023-11-21T09:40:22;99642.22;;;10.05;100.00
31717;BME280;18301;51.076;17.046;2023-11-21T09:45:28;99637.88;;;10.46;100.00
31717;BME280;18301;51.076;17.046;2023-11-21T09:50:32;99646.56;;;10.17;100.00
31717;BME280;18301;51.076;17.046;2023-11-21T09:55:35;99639.09;;;10.09;100.00
31717;BME280;18301;51.076;17.046;2023-11-21T10:00:46;99640.78;;;10.22;100.00
31717;BME280;18301;51.076;17.046;2023-11-21T10:05:50;99645.38;;;10.42;100.00
31717;BME280;18301;51.076;17.046;2023-11-21T10:10:53;99652.22;;;10.46;100.00
31717;BME280;18301;51.076;17.046;2023-11-21T10:15:56;99650.78;;;10.42;100.00
31717;BME280;18301;51.076;17.046;2023-11-21T10:20:59;99654.66;;;10.28;100.00
31717;BME280;18301;51.076;17.046;2023-11-21T10:26:02;99644.78;;;10.39;100.00
31717;BME280;18301;51.076;17.046;2023-11-21T10:31:16;99651.44;;;10.23;100.00
31717;BME280;18301;51.076;17.046;2023-11-21T10:36:27;99662.00;;;10.26;100.00
31717;BME280;18301;51.076;17.046;2023-11-21T10:41:29;99666.41;;;10.27;100.00
31717;BME280;18301;51.076;17.046;2023-11-21T10:46:30;99659.31;;;10.15;100.00
31717;BME280;18301;51.076;17.046;2023-11-21T10:51:32;99666.94;;;10.10;100.00
31717;BME280;18301;51.076;17.046;2023-11-21T10:56:33;99675.50;;;10.15;100.00
31717;BME280;18301;51.076;17.046;2023-11-21T11:01:45;99673.91;;;10.12;100.00
31717;BME280;18301;51.076;17.046;2023-11-21T11:06:51;99675.56;;;10.04;100.00
31717;BME280;18301;51.076;17.046;2023-11-21T11:11:55;99681.44;;;9.98;100.00
31717;BME280;18301;51.076;17.046;2023-11-21T11:16:57;99679.03;;;9.72;100.00
31717;BME280;18301;51.076;17.046;2023-11-21T11:27:34;99674.41;;;9.63;100.00
31717;BME280;18301;51.076;17.046;2023-11-21T11:32:55;99687.16;;;9.38;100.00
31717;BME280;18301;51.076;17.046;2023-11-21T11:38:01;99698.16;;;8.90;100.00
31717;BME280;18301;51.076;17.046;2023-11-21T11:43:02;99700.81;;;8.79;100.00
31717;BME280;18301;51.076;17.046;2023-11-21T11:48:05;99713.13;;;8.59;100.00
31717;BME280;18301;51.076;17.046;2023-11-21T11:53:14;99715.16;;;8.56;100.00
31717;BME280;18301;51.076;17.046;2023-11-21T11:58:16;99714.69;;;8.50;100.00
31717;BME280;18301;51.076;17.046;2023-11-21T12:03:19;99718.50;;;8.35;100.00
31717;BME280;18301;51.076;17.046;2023-11-21T12:08:20;99730.44;;;8.44;100.00
31717;BME280;18301;51.076;17.046;2023-11-21T12:13:22;99727.59;;;8.45;100.00
31717;BME280;18301;51.076;17.046;2023-11-21T12:18:24;99734.44;;;8.38;100.00
31717;BME280;18301;51.076;17.046;2023-11-21T12:23:27;99729.47;;;8.32;100.00
31717;BME280;18301;51.076;17.046;2023-11-21T12:28:29;99742.00;;;8.20;100.00
31717;BME280;18301;51.076;17.046;2023-11-21T12:33:30;99745.53;;;7.97;100.00
31717;BME280;18301;51.076;17.046;2023-11-21T12:38:35;99752.38;;;8.14;100.00
31717;BME280;18301;51.076;17.046;2023-11-21T12:43:37;99764.28;;;8.10;100.00
31717;BME280;18301;51.076;17.046;2023-11-21T12:48:44;99787.00;;;8.05;100.00
31717;BME280;18301;51.076;17.046;2023-11-21T12:53:47;99791.97;;;7.99;100.00
31717;BME280;18301;51.076;17.046;2023-11-21T12:58:49;99794.88;;;7.96;100.00
31717;BME280;18301;51.076;17.046;2023-11-21T13:03:52;99804.25;;;7.77;100.00
31717;BME280;18301;51.076;17.046;2023-11-21T13:08:54;99817.69;;;7.65;99.94
31717;BME280;18301;51.076;17.046;2023-11-21T13:13:58;99823.81;;;7.28;99.75
31717;BME280;18301;51.076;17.046;2023-11-21T13:19:02;99823.41;;;7.22;99.03
31717;BME280;18301;51.076;17.046;2023-11-21T13:24:04;99827.47;;;7.14;99.93
31717;BME280;18301;51.076;17.046;2023-11-21T13:29:06;99838.41;;;7.11;99.78
31717;BME280;18301;51.076;17.046;2023-11-21T13:34:08;99844.44;;;7.15;98.14
31717;BME280;18301;51.076;17.046;2023-11-21T13:39:10;99859.38;;;6.92;99.31
31717;BME280;18301;51.076;17.046;2023-11-21T13:44:17;99864.84;;;6.78;98.08
31717;BME280;18301;51.076;17.046;2023-11-21T13:49:37;99870.25;;;6.63;98.21
31717;BME280;18301;51.076;17.046;2023-11-21T13:54:42;99877.69;;;6.73;98.78
31717;BME280;18301;51.076;17.046;2023-11-21T13:59:43;99889.97;;;6.62;98.95
31717;BME280;18301;51.076;17.046;2023-11-21T14:04:45;99898.84;;;6.36;99.67
31717;BME280;18301;51.076;17.046;2023-11-21T14:09:57;99897.59;;;6.41;99.03
31717;BME280;18301;51.076;17.046;2023-11-21T14:15:00;99910.69;;;6.46;98.73
31717;BME280;18301;51.076;17.046;2023-11-21T14:20:02;99919.09;;;6.54;98.34
31717;BME280;18301;51.076;17.046;2023-11-21T14:25:07;99945.44;;;6.48;96.99
31717;BME280;18301;51.076;17.046;2023-11-21T14:30:08;99947.84;;;6.23;96.06
31717;BME280;18301;51.076;17.046;2023-11-21T14:35:14;99955.31;;;6.18;97.13
31717;BME280;18301;51.076;17.046;2023-11-21T14:40:16;99966.78;;;6.06;97.12
31717;BME280;18301;51.076;17.046;2023-11-21T14:45:19;99976.91;;;5.87;96.21
31717;BME280;18301;51.076;17.046;2023-11-21T14:50:21;99982.75;;;5.93;96.47
31717;BME280;18301;51.076;17.046;2023-11-21T14:55:41;99989.13;;;5.76;95.96
31717;BME280;18301;51.076;17.046;2023-11-21T15:00:56;100008.78;;;5.61;96.45
31717;BME280;18301;51.076;17.046;2023-11-21T15:06:00;100013.41;;;5.73;96.75
31717;BME280;18301;51.076;17.046;2023-11-21T15:11:20;100013.47;;;5.58;95.88
31717;BME280;18301;51.076;17.046;2023-11-21T15:16:26;100014.69;;;5.52;95.46
31717;BME280;18301;51.076;17.046;2023-11-21T15:21:28;100019.72;;;5.26;94.40
31717;BME280;18301;51.076;17.046;2023-11-21T15:26:29;100039.94;;;5.16;95.14
31717;BME280;18301;51.076;17.046;2023-11-21T15:31:31;100052.75;;;5.11;94.99
31717;BME280;18301;51.076;17.046;2023-11-21T15:36:32;100059.81;;;5.12;96.04
31717;BME280;18301;51.076;17.046;2023-11-21T15:41:35;100071.84;;;5.35;94.77
31717;BME280;18301;51.076;17.046;2023-11-21T15:46:37;100070.84;;;5.06;94.69
31717;BME280;18301;51.076;17.046;2023-11-21T15:51:44;100087.06;;;5.03;92.85
31717;BME280;18301;51.076;17.046;2023-11-21T15:56:54;100094.56;;;4.96;93.94
31717;BME280;18301;51.076;17.046;2023-11-21T16:02:01;100105.63;;;5.06;94.08
31717;BME280;18301;51.076;17.046;2023-11-21T16:07:07;100115.53;;;5.20;92.04
31717;BME280;18301;51.076;17.046;2023-11-21T16:12:08;100133.03;;;4.94;90.73
31717;BME280;18301;51.076;17.046;2023-11-21T16:17:12;100132.91;;;4.79;92.36
31717;BME280;18301;51.076;17.046;2023-11-21T16:22:14;100150.69;;;4.80;92.33
31717;BME280;18301;51.076;17.046;2023-11-21T16:27:15;100159.97;;;4.73;92.30
31717;BME280;18301;51.076;17.046;2023-11-21T16:32:18;100163.94;;;4.66;92.55
31717;BME280;18301;51.076;17.046;2023-11-21T16:37:21;100164.75;;;4.51;90.44
31717;BME280;18301;51.076;17.046;2023-11-21T16:42:23;100167.94;;;4.57;92.78
31717;BME280;18301;51.076;17.046;2023-11-21T16:47:24;100188.00;;;4.66;92.33
31717;BME280;18301;51.076;17.046;2023-11-21T16:52:30;100198.25;;;4.74;92.78
31717;BME280;18301;51.076;17.046;2023-11-21T16:57:32;100187.84;;;4.52;91.01
31717;BME280;18301;51.076;17.046;2023-11-21T17:02:40;100203.47;;;4.42;91.55
31717;BME280;18301;51.076;17.046;2023-11-21T17:07:42;100211.50;;;4.25;92.88
31717;BME280;18301;51.076;17.046;2023-11-21T17:12:45;100227.41;;;4.09;93.31
31717;BME280;18301;51.076;17.046;2023-11-21T17:17:46;100226.66;;;4.24;93.04
31717;BME280;18301;51.076;17.046;2023-11-21T17:22:48;100226.50;;;4.27;93.64
31717;BME280;18301;51.076;17.046;2023-11-21T17:27:49;100230.13;;;4.26;92.07
31717;BME280;18301;51.076;17.046;2023-11-21T17:32:52;100225.72;;;4.43;91.73
31717;BME280;18301;51.076;17.046;2023-11-21T17:37:54;100246.91;;;4.11;90.95
31717;BME280;18301;51.076;17.046;2023-11-21T17:42:56;100254.75;;;3.78;91.57
31717;BME280;18301;51.076;17.046;2023-11-21T17:47:57;100264.16;;;3.67;91.72
31717;BME280;18301;51.076;17.046;2023-11-21T17:52:59;100265.66;;;3.35;94.46
31717;BME280;18301;51.076;17.046;2023-11-21T17:58:01;100283.25;;;3.39;93.00
31717;BME280;18301;51.076;17.046;2023-11-21T18:03:02;100289.47;;;3.59;93.81
31717;BME280;18301;51.076;17.046;2023-11-21T18:08:06;100288.59;;;3.77;93.70
31717;BME280;18301;51.076;17.046;2023-11-21T18:13:08;100297.03;;;3.68;91.35
31717;BME280;18301;51.076;17.046;2023-11-21T18:18:10;100296.91;;;3.52;91.53
31717;BME280;18301;51.076;17.046;2023-11-21T18:23:11;100307.72;;;3.49;91.83
31717;BME280;18301;51.076;17.046;2023-11-21T18:28:13;100316.59;;;3.29;91.56
31717;BME280;18301;51.076;17.046;2023-11-21T18:33:15;100311.41;;;3.26;91.75
31717;BME280;18301;51.076;17.046;2023-11-21T18:38:20;100320.47;;;3.22;92.03
31717;BME280;18301;51.076;17.046;2023-11-21T18:43:21;100332.00;;;3.22;91.95
31717;BME280;18301;51.076;17.046;2023-11-21T18:48:23;100334.63;;;3.24;92.03
31717;BME280;18301;51.076;17.046;2023-11-21T18:53:30;100352.22;;;3.28;92.62
31717;BME280;18301;51.076;17.046;2023-11-21T18:58:36;100349.00;;;3.20;90.95
31717;BME280;18301;51.076;17.046;2023-11-21T19:03:37;100356.03;;;3.02;92.07
31717;BME280;18301;51.076;17.046;2023-11-21T19:08:40;100361.44;;;3.21;92.99
31717;BME280;18301;51.076;17.046;2023-11-21T19:13:42;100371.56;;;3.33;93.42
31717;BME280;18301;51.076;17.046;2023-11-21T19:18:44;100380.19;;;3.38;93.16
31717;BME280;18301;51.076;17.046;2023-11-21T19:23:46;100389.81;;;3.22;92.37
31717;BME280;18301;51.076;17.046;2023-11-21T19:28:48;100396.75;;;3.26;93.13
31717;BME280;18301;51.076;17.046;2023-11-21T19:33:49;100410.06;;;3.26;93.85
31717;BME280;18301;51.076;17.046;2023-11-21T19:38:52;100423.41;;;3.26;92.51
31717;BME280;18301;51.076;17.046;2023-11-21T19:43:54;100428.47;;;3.32;92.53
31717;BME280;18301;51.076;17.046;2023-11-21T19:48:56;100436.09;;;3.21;92.14
31717;BME280;18301;51.076;17.046;2023-11-21T19:53:58;100440.50;;;3.22;92.24
31717;BME280;18301;51.076;17.046;2023-11-21T19:59:00;100452.88;;;3.03;91.75
31717;BME280;18301;51.076;17.046;2023-11-21T20:04:02;100459.50;;;3.14;93.00
31717;BME280;18301;51.076;17.046;2023-11-21T20:09:03;100464.97;;;3.11;92.22
31717;BME280;18301;51.076;17.046;2023-11-21T20:14:05;100475.88;;;3.26;93.21
31717;BME280;18301;51.076;17.046;2023-11-21T20:19:07;100477.97;;;3.39;92.57
31717;BME280;18301;51.076;17.046;2023-11-21T20:24:09;100491.50;;;3.35;90.74
31717;BME280;18301;51.076;17.046;2023-11-21T20:29:13;100500.84;;;3.25;91.19
31717;BME280;18301;51.076;17.046;2023-11-21T20:34:15;100493.78;;;3.02;89.83
31717;BME280;18301;51.076;17.046;2023-11-21T20:39:16;100511.69;;;2.98;90.78
31717;BME280;18301;51.076;17.046;2023-11-21T20:44:19;100515.84;;;2.83;91.04
31717;BME280;18301;51.076;17.046;2023-11-21T20:49:22;100514.97;;;2.61;90.96
31717;BME280;18301;51.076;17.046;2023-11-21T20:54:30;100519.69;;;2.76;92.20
31717;BME280;18301;51.076;17.046;2023-11-21T20:59:31;100537.16;;;2.83;92.00
31717;BME280;18301;51.076;17.046;2023-11-21T21:04:33;100541.22;;;2.93;92.28
31717;BME280;18301;51.076;17.046;2023-11-21T21:09:34;100544.91;;;2.89;91.04
31717;BME280;18301;51.076;17.046;2023-11-21T21:14:37;100552.31;;;3.05;90.81
31717;BME280;18301;51.076;17.046;2023-11-21T21:19:40;100560.59;;;2.75;90.62
31717;BME280;18301;51.076;17.046;2023-11-21T21:24:41;100566.28;;;2.66;90.55
31717;BME280;18301;51.076;17.046;2023-11-21T21:29:42;100574.84;;;2.74;89.19
31717;BME280;18301;51.076;17.046;2023-11-21T21:34:44;100587.03;;;2.58;90.70
31717;BME280;18301;51.076;17.046;2023-11-21T21:39:45;100591.56;;;2.56;89.87
31717;BME280;18301;51.076;17.046;2023-11-21T21:44:47;100609.50;;;2.50;90.66
31717;BME280;18301;51.076;17.046;2023-11-21T21:49:48;100630.41;;;2.38;90.02
31717;BME280;18301;51.076;17.046;2023-11-21T21:54:50;100625.72;;;2.44;91.38
31717;BME280;18301;51.076;17.046;2023-11-21T21:59:53;100633.69;;;2.68;91.32
31717;BME280;18301;51.076;17.046;2023-11-21T22:04:55;100637.41;;;2.64;91.63
31717;BME280;18301;51.076;17.046;2023-11-21T22:09:56;100640.44;;;2.78;91.72
31717;BME280;18301;51.076;17.046;2023-11-21T22:14:58;100648.88;;;2.66;91.83
31717;BME280;18301;51.076;17.046;2023-11-21T22:19:59;100654.22;;;2.66;89.82
31717;BME280;18301;51.076;17.046;2023-11-21T22:25:01;100646.78;;;2.74;92.21
31717;BME280;18301;51.076;17.046;2023-11-21T22:30:05;100638.31;;;2.86;91.35
31717;BME280;18301;51.076;17.046;2023-11-21T22:35:07;100652.25;;;2.94;91.10
31717;BME280;18301;51.076;17.046;2023-11-21T22:40:10;100667.66;;;2.86;89.73
31717;BME280;18301;51.076;17.046;2023-11-21T22:45:12;100663.13;;;2.88;90.90
31717;BME280;18301;51.076;17.046;2023-11-21T22:50:13;100666.50;;;2.93;90.07
31717;BME280;18301;51.076;17.046;2023-11-21T22:55:15;100666.09;;;2.81;91.70
31717;BME280;18301;51.076;17.046;2023-11-21T23:00:17;100677.97;;;2.72;90.67
31717;BME280;18301;51.076;17.046;2023-11-21T23:05:22;100672.19;;;2.84;90.17
31717;BME280;18301;51.076;17.046;2023-11-21T23:10:23;100679.00;;;2.68;90.76
31717;BME280;18301;51.076;17.046;2023-11-21T23:15:25;100681.78;;;2.65;90.54
31717;BME280;18301;51.076;17.046;2023-11-21T23:20:27;100692.88;;;2.78;90.73
31717;BME280;18301;51.076;17.046;2023-11-21T23:25:28;100690.06;;;2.57;88.45
31717;BME280;18301;51.076;17.046;2023-11-21T23:30:30;100695.81;;;2.20;90.20
31717;BME280;18301;51.076;17.046;2023-11-21T23:35:31;100705.53;;;2.21;91.07
31717;BME280;18301;51.076;17.046;2023-11-21T23:40:33;100710.06;;;2.19;89.87
31717;BME280;18301;51.076;17.046;2023-11-21T23:45:35;100724.59;;;2.35;88.79
31717;BME280;18301;51.076;17.046;2023-11-21T23:50:37;100722.53;;;2.17;90.23
31717;BME280;18301;51.076;17.046;2023-11-21T23:55:38;100739.88;;;2.03;89.34
